createdAt,value
2017-10-26T00:00:29.171Z,4.33
2017-10-26T00:02:56.714Z,3.90
2017-10-26T00:05:24.242Z,2.70
2017-10-26T00:07:52.555Z,3.00
2017-10-26T00:10:20.086Z,3.57
2017-10-26T00:12:47.625Z,2.77
2017-10-26T00:15:15.146Z,2.63
2017-10-26T00:17:42.692Z,2.50
2017-10-26T00:20:10.267Z,2.70
2017-10-26T00:22:37.823Z,2.50
2017-10-26T00:25:05.368Z,2.83
2017-10-26T00:27:32.901Z,2.40
2017-10-26T00:30:00.442Z,2.63
2017-10-26T00:32:27.963Z,2.70
2017-10-26T00:34:55.495Z,3.67
2017-10-26T00:37:23.015Z,2.27
2017-10-26T00:39:50.552Z,2.90
2017-10-26T00:42:18.849Z,2.50
2017-10-26T00:44:46.390Z,2.47
2017-10-26T00:47:13.913Z,2.67
2017-10-26T00:49:41.458Z,2.70
2017-10-26T00:52:08.987Z,2.40
2017-10-26T00:54:37.291Z,2.57
2017-10-26T00:57:04.805Z,3.00
2017-10-26T00:59:32.350Z,3.20
2017-10-26T01:01:59.877Z,3.00
2017-10-26T01:04:27.414Z,3.17
2017-10-26T01:06:54.934Z,3.37
2017-10-26T01:09:22.471Z,2.80
2017-10-26T01:11:49.999Z,2.20
2017-10-26T01:14:17.536Z,2.93
2017-10-26T01:16:45.828Z,2.27
2017-10-26T01:19:14.132Z,2.00
2017-10-26T01:21:41.651Z,3.83
2017-10-26T01:24:09.955Z,2.67
2017-10-26T01:26:37.474Z,2.33
2017-10-26T01:29:05.015Z,3.73
2017-10-26T01:31:32.543Z,2.60
2017-10-26T01:34:00.082Z,2.73
2017-10-26T01:36:28.366Z,2.70
2017-10-26T01:38:55.906Z,3.50
2017-10-26T01:41:24.191Z,3.00
2017-10-26T01:43:52.494Z,3.20
2017-10-26T01:46:20.075Z,3.97
2017-10-26T01:48:48.388Z,4.13
2017-10-26T01:51:15.913Z,3.37
2017-10-26T01:53:43.450Z,2.70
2017-10-26T01:56:10.970Z,3.20
2017-10-26T01:58:38.507Z,3.40
2017-10-26T02:01:06.027Z,3.53
2017-10-26T02:03:33.567Z,3.60
2017-10-26T02:06:01.856Z,3.80
2017-10-26T02:08:29.396Z,4.23
2017-10-26T02:10:56.914Z,4.63
2017-10-26T02:13:24.452Z,5.30
2017-10-26T02:15:51.966Z,4.07
2017-10-26T02:18:19.506Z,4.00
2017-10-26T02:20:47.019Z,3.37
2017-10-26T02:23:15.321Z,4.37
2017-10-26T02:25:42.866Z,3.83
2017-10-26T02:28:10.386Z,3.60
2017-10-26T02:33:40.172Z,3.90
2017-10-26T02:36:07.691Z,4.50
2017-10-26T02:38:36.002Z,4.30
2017-10-26T02:41:03.519Z,3.30
2017-10-26T02:43:31.834Z,4.23
2017-10-26T02:45:59.352Z,4.20
2017-10-26T02:48:26.886Z,3.97
2017-10-26T02:50:54.407Z,4.20
2017-10-26T02:53:21.951Z,3.27
2017-10-26T02:55:50.262Z,4.20
2017-10-26T02:58:17.779Z,3.70
2017-10-26T03:00:45.315Z,3.80
2017-10-26T03:03:12.838Z,3.70
2017-10-26T03:05:40.375Z,4.27
2017-10-26T03:08:08.659Z,3.67
2017-10-26T03:10:36.964Z,4.07
2017-10-26T03:13:04.478Z,3.80
2017-10-26T03:15:32.014Z,3.80
2017-10-26T03:17:59.542Z,4.30
2017-10-26T03:20:27.080Z,4.83
2017-10-26T03:22:55.354Z,4.37
2017-10-26T03:25:23.655Z,4.13
2017-10-26T03:27:51.167Z,3.20
2017-10-26T03:30:18.703Z,4.10
2017-10-26T03:32:46.223Z,5.10
2017-10-26T03:35:13.757Z,4.30
2017-10-26T03:37:41.275Z,4.70
2017-10-26T03:40:08.821Z,4.30
2017-10-26T03:42:36.342Z,5.30
2017-10-26T03:45:04.653Z,3.43
2017-10-26T03:47:32.176Z,3.90
2017-10-26T03:50:00.484Z,4.87
2017-10-26T03:52:28.007Z,5.50
2017-10-26T03:54:55.543Z,6.77
2017-10-26T03:57:23.068Z,6.40
2017-10-26T03:59:50.614Z,7.57
2017-10-26T04:02:18.144Z,6.20
2017-10-26T04:04:45.688Z,6.67
2017-10-26T04:07:13.216Z,3.57
2017-10-26T04:09:40.758Z,5.00
2017-10-26T04:12:08.279Z,5.80
2017-10-26T04:14:35.816Z,6.43
2017-10-26T04:17:03.340Z,3.83
2017-10-26T04:19:30.888Z,5.07
2017-10-26T04:21:58.410Z,5.33
2017-10-26T04:24:25.952Z,4.27
2017-10-26T04:26:53.486Z,5.67
2017-10-26T04:29:21.031Z,5.77
2017-10-26T04:31:48.556Z,6.57
2017-10-26T04:34:16.106Z,5.70
2017-10-26T04:36:43.621Z,6.07
2017-10-26T04:39:11.161Z,5.90
2017-10-26T04:41:39.456Z,7.23
2017-10-26T04:44:06.992Z,5.30
2017-10-26T04:46:35.283Z,7.60
2017-10-26T04:49:03.578Z,6.40
2017-10-26T04:51:31.100Z,4.73
2017-10-26T04:53:58.634Z,6.00
2017-10-26T04:56:26.158Z,5.10
2017-10-26T04:58:53.684Z,9.63
2017-10-26T05:01:21.224Z,6.10
2017-10-26T05:03:48.744Z,8.10
2017-10-26T05:06:16.279Z,6.00
2017-10-26T05:08:44.561Z,8.67
2017-10-26T05:11:12.871Z,8.10
2017-10-26T05:13:40.391Z,7.37
2017-10-26T05:16:08.692Z,5.10
2017-10-26T05:18:36.211Z,4.50
2017-10-26T05:21:03.744Z,8.47
2017-10-26T05:23:31.259Z,5.10
2017-10-26T05:25:59.563Z,4.73
2017-10-26T05:28:27.078Z,6.30
2017-10-26T05:30:54.616Z,29.30
2017-10-26T05:33:22.147Z,18.50
2017-10-26T05:35:49.690Z,11.97
2017-10-26T05:38:17.974Z,12.17
2017-10-26T05:40:45.519Z,8.10
2017-10-26T05:43:13.090Z,7.73
2017-10-26T05:45:41.390Z,9.83
2017-10-26T05:48:08.911Z,7.40
2017-10-26T05:50:37.235Z,6.10
2017-10-26T05:53:04.783Z,6.43
2017-10-26T05:55:33.083Z,8.27
2017-10-26T05:58:00.603Z,10.30
2017-10-26T06:00:28.156Z,10.60
2017-10-26T06:02:55.671Z,9.97
2017-10-26T06:05:23.971Z,12.37
2017-10-26T06:07:51.490Z,9.87
2017-10-26T06:10:19.049Z,9.60
2017-10-26T06:12:46.567Z,6.63
2017-10-26T06:15:14.087Z,6.23
2017-10-26T06:17:41.627Z,7.37
2017-10-26T06:20:09.158Z,6.63
2017-10-26T06:22:36.697Z,7.00
2017-10-26T06:25:04.213Z,5.07
2017-10-26T06:27:31.747Z,5.00
2017-10-26T06:30:00.028Z,5.73
2017-10-26T06:32:27.579Z,10.37
2017-10-26T06:34:55.869Z,6.00
2017-10-26T06:37:24.167Z,7.30
2017-10-26T06:39:51.695Z,6.30
2017-10-26T06:42:19.239Z,6.43
2017-10-26T06:44:46.762Z,7.70
2017-10-26T06:47:15.062Z,6.27
2017-10-26T06:49:42.587Z,7.30
2017-10-26T06:52:10.123Z,6.30
2017-10-26T06:54:37.642Z,5.73
2017-10-26T06:57:05.943Z,6.63
2017-10-26T06:59:33.464Z,9.83
2017-10-26T07:02:01.018Z,8.90
2017-10-26T07:04:28.541Z,11.87
2017-10-26T07:06:56.074Z,6.80
2017-10-26T07:09:24.372Z,8.53
2017-10-26T07:11:51.915Z,6.77
2017-10-26T07:14:20.197Z,7.97
2017-10-26T07:16:47.738Z,8.40
2017-10-26T07:19:15.259Z,5.47
2017-10-26T07:21:42.799Z,6.47
2017-10-26T07:24:11.090Z,7.43
2017-10-26T07:26:38.634Z,10.90
2017-10-26T07:29:06.926Z,11.40
2017-10-26T07:31:35.237Z,8.80
2017-10-26T07:34:02.758Z,10.93
2017-10-26T07:36:31.080Z,13.80
2017-10-26T07:38:58.601Z,10.20
2017-10-26T07:41:26.144Z,12.20
2017-10-26T07:43:53.672Z,10.40
2017-10-26T07:46:21.210Z,10.97
2017-10-26T07:48:49.503Z,11.13
2017-10-26T07:51:17.050Z,7.70
2017-10-26T07:53:45.330Z,9.60
2017-10-26T07:56:12.862Z,7.37
2017-10-26T07:58:40.379Z,5.90
2017-10-26T08:01:07.899Z,6.70
2017-10-26T08:03:35.432Z,5.93
2017-10-26T08:06:02.960Z,7.47
2017-10-26T08:08:31.262Z,7.73
2017-10-26T08:10:58.787Z,7.47
2017-10-26T08:13:26.326Z,8.63
2017-10-26T08:15:53.849Z,10.10
2017-10-26T08:18:21.395Z,12.90
2017-10-26T08:20:49.674Z,8.00
2017-10-26T08:23:17.216Z,7.53
2017-10-26T08:25:44.745Z,11.53
2017-10-26T08:28:12.279Z,7.33
2017-10-26T08:30:40.570Z,8.20
2017-10-26T08:33:08.882Z,10.50
2017-10-26T08:35:36.412Z,14.30
2017-10-26T08:38:04.720Z,13.60
2017-10-26T08:40:32.249Z,10.23
2017-10-26T08:43:00.554Z,12.33
2017-10-26T08:45:28.079Z,10.00
2017-10-26T08:47:55.619Z,9.90
2017-10-26T08:50:23.146Z,9.63
2017-10-26T08:52:50.692Z,8.43
2017-10-26T08:55:18.983Z,9.23
2017-10-26T08:57:47.287Z,10.17
2017-10-26T09:00:14.817Z,9.13
2017-10-26T09:02:43.129Z,8.00
2017-10-26T09:05:10.656Z,9.70
2017-10-26T09:07:38.968Z,7.77
2017-10-26T09:10:06.487Z,9.43
2017-10-26T09:12:34.027Z,9.50
2017-10-26T09:15:01.552Z,7.90
2017-10-26T09:17:29.087Z,9.87
2017-10-26T09:19:56.611Z,14.00
2017-10-26T09:22:24.151Z,12.97
2017-10-26T09:24:51.672Z,13.33
2017-10-26T09:27:19.985Z,10.47
2017-10-26T09:29:47.508Z,11.20
2017-10-26T09:32:15.051Z,7.63
2017-10-26T09:34:42.566Z,8.27
2017-10-26T09:37:10.876Z,8.50
2017-10-26T09:39:38.408Z,9.43
2017-10-26T09:42:06.712Z,7.00
2017-10-26T09:44:34.230Z,13.03
2017-10-26T09:47:01.772Z,11.70
2017-10-26T09:49:30.067Z,12.60
2017-10-26T09:51:57.613Z,8.70
2017-10-26T09:54:25.147Z,11.43
2017-10-26T09:56:52.699Z,11.03
2017-10-26T09:59:20.222Z,10.77
2017-10-26T10:01:47.770Z,10.37
2017-10-26T10:04:15.306Z,10.77
2017-10-26T10:06:42.847Z,10.80
2017-10-26T10:09:11.139Z,11.20
2017-10-26T10:11:38.662Z,14.40
2017-10-26T10:14:06.203Z,10.37
2017-10-26T10:16:33.731Z,9.70
2017-10-26T10:19:01.276Z,8.57
2017-10-26T10:21:29.567Z,10.47
2017-10-26T10:23:57.875Z,13.43
2017-10-26T10:26:25.403Z,9.33
2017-10-26T10:28:53.710Z,12.13
2017-10-26T10:31:21.224Z,7.67
2017-10-26T10:33:48.763Z,9.83
2017-10-26T10:36:16.283Z,5.93
2017-10-26T10:38:44.614Z,7.33
2017-10-26T10:41:12.147Z,10.33
2017-10-26T10:43:39.688Z,8.37
2017-10-26T10:46:07.980Z,7.57
2017-10-26T10:48:35.529Z,10.30
2017-10-26T10:51:03.810Z,9.37
2017-10-26T10:53:32.119Z,7.90
2017-10-26T10:55:59.643Z,8.07
2017-10-26T10:58:27.183Z,8.73
2017-10-26T11:00:55.470Z,10.17
2017-10-26T11:03:23.023Z,11.67
2017-10-26T11:05:50.543Z,11.20
2017-10-26T11:08:18.851Z,10.57
2017-10-26T11:10:46.369Z,10.20
2017-10-26T11:13:13.921Z,10.93
2017-10-26T11:15:41.446Z,11.67
2017-10-26T11:18:09.002Z,12.03
2017-10-26T11:20:36.519Z,10.53
2017-10-26T11:23:04.071Z,8.77
2017-10-26T11:25:32.362Z,15.40
2017-10-26T11:27:59.903Z,13.20
2017-10-26T11:30:27.428Z,8.50
2017-10-26T11:32:55.736Z,8.47
2017-10-26T11:35:23.259Z,6.07
2017-10-26T11:37:51.568Z,9.57
2017-10-26T11:40:19.099Z,9.53
2017-10-26T11:42:46.635Z,8.33
2017-10-26T11:45:14.162Z,13.13
2017-10-26T11:47:41.703Z,7.30
2017-10-26T11:50:09.986Z,8.77
2017-10-26T11:52:38.300Z,11.80
2017-10-26T11:55:05.823Z,7.83
2017-10-26T11:57:33.372Z,8.93
2017-10-26T12:00:00.899Z,6.57
2017-10-26T12:02:28.435Z,7.30
2017-10-26T12:04:56.719Z,9.50
2017-10-26T12:07:25.026Z,7.93
2017-10-26T12:09:52.555Z,5.90
2017-10-26T12:12:20.866Z,10.87
2017-10-26T12:14:48.390Z,7.90
2017-10-26T12:17:15.951Z,9.27
2017-10-26T12:19:43.476Z,8.03
2017-10-26T12:22:10.999Z,5.80
2017-10-26T12:24:39.310Z,6.23
2017-10-26T12:27:06.839Z,6.60
2017-10-26T12:29:34.386Z,13.07
2017-10-26T12:32:01.910Z,5.70
2017-10-26T12:34:29.451Z,6.00
2017-10-26T12:36:57.734Z,6.87
2017-10-26T12:39:26.038Z,4.40
2017-10-26T12:41:53.554Z,5.37
2017-10-26T12:44:21.150Z,5.13
2017-10-26T12:46:49.432Z,7.47
2017-10-26T12:49:17.739Z,6.40
2017-10-26T12:51:45.267Z,5.20
2017-10-26T12:54:12.812Z,6.73
2017-10-26T12:56:40.355Z,5.53
2017-10-26T12:59:07.899Z,5.67
2017-10-26T13:01:35.423Z,6.00
2017-10-26T13:04:02.970Z,5.30
2017-10-26T13:06:30.496Z,5.93
2017-10-26T13:08:58.047Z,58.83
2017-10-26T13:11:26.340Z,28.37
2017-10-26T13:13:53.880Z,5.67
2017-10-26T13:16:22.169Z,10.13
2017-10-26T13:18:50.476Z,6.07
2017-10-26T13:21:17.995Z,4.23
2017-10-26T13:23:45.539Z,4.73
2017-10-26T13:26:13.064Z,4.40
2017-10-26T13:28:40.615Z,6.37
2017-10-26T13:31:08.903Z,4.37
2017-10-26T13:33:37.206Z,4.30
2017-10-26T13:36:04.721Z,5.00
2017-10-26T13:38:32.263Z,3.00
2017-10-26T13:40:59.787Z,3.27
2017-10-26T13:43:28.086Z,2.90
2017-10-26T13:45:55.603Z,3.50
2017-10-26T13:48:23.147Z,3.50
2017-10-26T13:50:50.674Z,4.70
2017-10-26T13:53:18.978Z,3.43
2017-10-26T13:55:46.494Z,4.20
2017-10-26T13:58:14.035Z,7.40
2017-10-26T14:00:41.555Z,4.77
2017-10-26T14:03:09.114Z,3.57
2017-10-26T14:05:37.407Z,3.67
2017-10-26T14:08:04.969Z,8.07
2017-10-26T14:10:32.502Z,7.03
2017-10-26T14:13:00.044Z,2.57
2017-10-26T14:15:27.564Z,2.67
2017-10-26T14:17:55.103Z,2.73
2017-10-26T14:20:22.629Z,1.80
2017-10-26T14:22:50.171Z,2.40
2017-10-26T14:25:17.686Z,1.93
2017-10-26T14:27:45.206Z,2.40
2017-10-26T14:30:12.751Z,2.43
2017-10-26T14:32:40.276Z,1.77
2017-10-26T14:35:08.590Z,4.10
2017-10-26T14:37:36.103Z,4.20
2017-10-26T14:40:03.648Z,3.23
2017-10-26T14:42:31.167Z,4.10
2017-10-26T14:44:59.485Z,2.97
2017-10-26T14:47:27.007Z,2.63
2017-10-26T14:49:54.542Z,4.40
2017-10-26T14:52:22.067Z,3.17
2017-10-26T14:54:50.380Z,2.83
2017-10-26T14:57:17.895Z,5.70
2017-10-26T14:59:45.434Z,5.17
2017-10-26T15:02:12.955Z,7.57
2017-10-26T15:04:40.498Z,9.30
2017-10-26T15:07:08.811Z,8.63
2017-10-26T15:09:36.351Z,4.60
2017-10-26T15:12:04.634Z,3.00
2017-10-26T15:14:32.941Z,3.60
2017-10-26T15:17:00.459Z,3.00
2017-10-26T15:19:28.003Z,3.07
2017-10-26T15:21:55.533Z,2.70
2017-10-26T15:24:23.066Z,3.23
2017-10-26T15:26:51.352Z,2.97
2017-10-26T15:29:19.659Z,7.23
2017-10-26T15:31:47.193Z,4.60
2017-10-26T15:34:15.502Z,2.90
2017-10-26T15:36:43.022Z,3.23
2017-10-26T15:39:10.593Z,4.13
2017-10-26T15:41:38.110Z,3.40
2017-10-26T15:44:05.651Z,3.63
2017-10-26T15:46:33.943Z,2.20
2017-10-26T15:49:01.484Z,4.20
2017-10-26T15:51:29.779Z,4.40
2017-10-26T15:53:58.082Z,2.80
2017-10-26T15:56:25.603Z,3.10
2017-10-26T15:58:53.150Z,5.90
2017-10-26T16:01:20.684Z,3.70
2017-10-26T16:03:48.229Z,4.23
2017-10-26T16:06:15.746Z,3.77
2017-10-26T16:08:43.279Z,3.47
2017-10-26T16:11:10.803Z,5.13
2017-10-26T16:13:39.113Z,3.73
2017-10-26T16:16:06.642Z,4.03
2017-10-26T16:18:34.948Z,4.83
2017-10-26T16:21:02.479Z,4.60
2017-10-26T16:23:30.014Z,3.80
2017-10-26T16:25:57.544Z,4.23
2017-10-26T16:28:25.081Z,3.50
2017-10-26T16:30:52.598Z,3.63
2017-10-26T16:33:20.159Z,4.20
2017-10-26T16:35:47.674Z,3.90
2017-10-26T16:38:15.193Z,4.10
2017-10-26T16:40:42.748Z,3.77
2017-10-26T16:43:10.275Z,5.20
2017-10-26T16:45:38.585Z,3.30
2017-10-26T16:48:06.102Z,4.37
2017-10-26T16:50:33.643Z,3.17
2017-10-26T16:53:01.168Z,3.27
2017-10-26T16:55:29.468Z,3.00
2017-10-26T16:57:56.999Z,3.13
2017-10-26T17:00:25.307Z,3.20
2017-10-26T17:02:52.826Z,3.67
2017-10-26T17:05:20.366Z,3.90
2017-10-26T17:07:47.892Z,5.20
2017-10-26T17:10:16.198Z,3.63
2017-10-26T17:12:43.721Z,3.20
2017-10-26T17:15:12.083Z,4.47
2017-10-26T17:17:39.610Z,2.50
2017-10-26T17:20:07.155Z,2.60
2017-10-26T17:22:34.684Z,2.57
2017-10-26T17:25:02.236Z,2.70
2017-10-26T17:27:29.759Z,3.50
2017-10-26T17:29:57.308Z,4.80
2017-10-26T17:32:25.596Z,2.83
2017-10-26T17:34:53.144Z,2.40
2017-10-26T17:37:21.438Z,8.30
2017-10-26T17:39:48.984Z,11.87
2017-10-26T17:42:17.272Z,14.90
2017-10-26T17:44:45.588Z,10.53
2017-10-26T17:47:13.105Z,3.67
2017-10-26T17:49:40.642Z,3.43
2017-10-26T17:52:08.163Z,4.97
2017-10-26T17:54:35.714Z,2.83
2017-10-26T17:57:03.243Z,6.23
2017-10-26T17:59:30.786Z,3.80
2017-10-26T18:01:59.079Z,2.80
2017-10-26T18:04:26.626Z,2.83
2017-10-26T18:06:54.144Z,3.20
2017-10-26T18:09:21.678Z,3.60
2017-10-26T18:11:49.198Z,3.27
2017-10-26T18:14:16.732Z,9.77
2017-10-26T18:16:44.264Z,3.93
2017-10-26T18:19:11.811Z,6.27
2017-10-26T18:21:39.330Z,4.63
2017-10-26T18:24:06.872Z,4.87
2017-10-26T18:26:35.157Z,5.23
2017-10-26T18:29:03.463Z,4.13
2017-10-26T18:31:30.986Z,3.57
2017-10-26T18:33:58.532Z,4.63
2017-10-26T18:36:26.046Z,4.53
2017-10-26T18:38:54.347Z,3.40
2017-10-26T18:41:21.871Z,3.57
2017-10-26T18:43:49.387Z,2.90
2017-10-26T18:46:16.927Z,4.40
2017-10-26T18:48:44.445Z,3.27
2017-10-26T18:51:11.992Z,3.63
2017-10-26T18:53:39.578Z,3.13
2017-10-26T18:56:07.914Z,3.40
2017-10-26T18:58:35.459Z,4.03
2017-10-26T19:01:03.768Z,3.50
2017-10-26T19:03:31.328Z,5.20
2017-10-26T19:05:58.879Z,4.00
2017-10-26T19:08:26.404Z,5.63
2017-10-26T19:10:53.938Z,5.50
2017-10-26T19:13:21.462Z,5.33
2017-10-26T19:15:49.765Z,4.90
2017-10-26T19:18:17.283Z,4.23
2017-10-26T19:20:44.823Z,4.03
2017-10-26T19:23:12.343Z,6.03
2017-10-26T19:25:39.884Z,3.67
2017-10-26T19:28:08.163Z,6.03
2017-10-26T19:30:36.472Z,4.83
2017-10-26T19:33:04.000Z,5.60
2017-10-26T19:35:32.317Z,4.43
2017-10-26T19:37:59.841Z,3.93
2017-10-26T19:40:27.378Z,4.43
2017-10-26T19:42:54.903Z,5.53
2017-10-26T19:45:22.448Z,5.70
2017-10-26T19:47:50.727Z,3.80
2017-10-26T19:50:19.033Z,2.97
2017-10-26T19:52:46.552Z,3.40
2017-10-26T19:55:15.189Z,3.63
2017-10-26T19:57:42.735Z,4.47
2017-10-26T20:00:10.276Z,5.07
2017-10-26T20:02:38.569Z,6.00
2017-10-26T20:05:06.871Z,4.40
2017-10-26T20:07:34.392Z,4.10
2017-10-26T20:10:01.935Z,4.77
2017-10-26T20:12:29.455Z,5.03
2017-10-26T20:14:56.990Z,4.87
2017-10-26T20:17:25.280Z,5.10
2017-10-26T20:19:52.814Z,4.50
2017-10-26T20:22:20.338Z,4.03
2017-10-26T20:24:47.874Z,4.33
2017-10-26T20:27:15.394Z,5.80
2017-10-26T20:29:43.710Z,4.13
2017-10-26T20:32:11.230Z,3.70
2017-10-26T20:34:38.770Z,4.67
2017-10-26T20:37:06.292Z,5.83
2017-10-26T20:39:34.603Z,5.57
2017-10-26T20:42:02.119Z,6.10
2017-10-26T20:44:29.645Z,6.80
2017-10-26T20:46:57.190Z,6.23
2017-10-26T20:49:30.466Z,4.40
2017-10-26T20:52:03.651Z,5.97
2017-10-26T20:54:37.565Z,5.20
2017-10-26T20:57:10.748Z,5.87
2017-10-26T20:59:44.644Z,5.73
2017-10-26T21:02:17.889Z,5.50
2017-10-26T21:04:51.164Z,4.97
2017-10-26T21:07:25.072Z,5.00
2017-10-26T21:09:53.354Z,5.67
2017-10-26T21:12:27.419Z,4.23
2017-10-26T21:14:54.930Z,5.80
2017-10-26T21:17:22.477Z,7.23
2017-10-26T21:19:50.020Z,9.23
2017-10-26T21:22:17.567Z,6.07
2017-10-26T21:24:45.089Z,6.50
2017-10-26T21:27:12.622Z,8.30
2017-10-26T21:29:40.152Z,11.83
2017-10-26T21:32:07.697Z,8.03
2017-10-26T21:34:35.984Z,9.57
2017-10-26T21:37:04.287Z,7.83
2017-10-26T21:39:31.811Z,11.73
2017-10-26T21:42:00.120Z,10.77
2017-10-26T21:44:27.643Z,8.10
2017-10-26T21:46:55.178Z,6.30
2017-10-26T21:49:22.694Z,8.40
2017-10-26T21:51:50.991Z,7.50
2017-10-26T21:54:18.525Z,6.73
2017-10-26T21:56:46.843Z,12.00
2017-10-26T21:59:14.566Z,13.27
2017-10-26T22:01:42.886Z,14.27
2017-10-26T22:04:10.414Z,10.13
2017-10-26T22:06:38.714Z,7.60
2017-10-26T22:09:06.228Z,9.70
2017-10-26T22:11:33.780Z,9.70
2017-10-26T22:14:01.299Z,11.07
2017-10-26T22:16:28.864Z,11.57
2017-10-26T22:18:56.388Z,17.90
2017-10-26T22:21:23.938Z,11.17
2017-10-26T22:23:51.454Z,10.60
2017-10-26T22:26:18.991Z,14.10
2017-10-26T22:28:47.278Z,13.00
2017-10-26T22:31:15.582Z,9.70
2017-10-26T22:33:43.124Z,10.77
2017-10-26T22:36:11.431Z,13.30
2017-10-26T22:38:38.954Z,9.70
2017-10-26T22:41:06.503Z,11.47
2017-10-26T22:43:34.019Z,8.97
2017-10-26T22:46:01.552Z,8.67
2017-10-26T22:48:29.075Z,7.90
2017-10-26T22:50:56.614Z,9.67
2017-10-26T22:53:24.131Z,10.90
2017-10-26T22:55:51.671Z,12.03
2017-10-26T22:58:19.189Z,9.50
2017-10-26T23:00:47.490Z,9.53
2017-10-26T23:03:15.020Z,12.37
2017-10-26T23:05:43.331Z,12.47
2017-10-26T23:08:10.863Z,16.93
2017-10-26T23:10:39.170Z,14.50
2017-10-26T23:13:06.710Z,9.53
2017-10-26T23:15:34.994Z,10.20
2017-10-26T23:18:03.305Z,12.07
2017-10-26T23:20:30.839Z,8.43
2017-10-26T23:22:59.143Z,14.40
2017-10-26T23:25:26.665Z,13.90
2017-10-26T23:27:54.212Z,11.10
2017-10-26T23:30:21.729Z,10.27
2017-10-26T23:32:50.034Z,8.00
2017-10-26T23:35:17.558Z,10.00
2017-10-26T23:37:45.875Z,10.07
2017-10-26T23:40:13.394Z,11.40
2017-10-26T23:42:40.934Z,9.63
2017-10-26T23:45:08.449Z,8.57
2017-10-26T23:47:35.991Z,7.90
2017-10-26T23:50:04.274Z,8.67
2017-10-26T23:52:32.588Z,7.57
2017-10-26T23:55:00.112Z,7.70
2017-10-26T23:57:28.411Z,8.37
2017-10-26T23:59:55.938Z,16.30
